sensor_id;sensor_type;location;lat;lon;timestamp;temperature;humidity
9179;DHT22;71287;48.414;11.478;2023-09-19T00:00:21;16.60;99.90
9179;DHT22;71287;48.414;11.478;2023-09-19T00:02:52;16.60;99.90
9179;DHT22;71287;48.414;11.478;2023-09-19T00:05:19;16.50;99.90
9179;DHT22;71287;48.414;11.478;2023-09-19T00:07:50;16.50;99.90
9179;DHT22;71287;48.414;11.478;2023-09-19T00:10:19;16.50;99.90
9179;DHT22;71287;48.414;11.478;2023-09-19T00:12:47;16.50;99.90
9179;DHT22;71287;48.414;11.478;2023-09-19T00:15:14;16.50;99.90
9179;DHT22;71287;48.414;11.478;2023-09-19T00:17:44;16.40;99.90
9179;DHT22;71287;48.414;11.478;2023-09-19T00:20:13;16.40;99.90
9179;DHT22;71287;48.414;11.478;2023-09-19T00:22:42;16.50;99.90
9179;DHT22;71287;48.414;11.478;2023-09-19T00:25:10;16.40;99.90
9179;DHT22;71287;48.414;11.478;2023-09-19T00:27:37;16.40;99.90
9179;DHT22;71287;48.414;11.478;2023-09-19T00:30:08;16.40;99.90
9179;DHT22;71287;48.414;11.478;2023-09-19T00:32:40;16.40;99.90
9179;DHT22;71287;48.414;11.478;2023-09-19T00:35:08;16.40;99.90
9179;DHT22;71287;48.414;11.478;2023-09-19T00:37:36;16.40;99.90
9179;DHT22;71287;48.414;11.478;2023-09-19T00:40:06;16.50;99.90
9179;DHT22;71287;48.414;11.478;2023-09-19T00:42:37;16.50;99.90
9179;DHT22;71287;48.414;11.478;2023-09-19T00:45:06;16.60;99.90
9179;DHT22;71287;48.414;11.478;2023-09-19T00:47:35;16.60;99.90
9179;DHT22;71287;48.414;11.478;2023-09-19T00:50:04;16.60;99.90
9179;DHT22;71287;48.414;11.478;2023-09-19T00:52:34;16.60;99.90
9179;DHT22;71287;48.414;11.478;2023-09-19T00:55:05;16.70;99.90
9179;DHT22;71287;48.414;11.478;2023-09-19T00:57:32;16.70;99.90
9179;DHT22;71287;48.414;11.478;2023-09-19T01:00:00;16.70;99.90
9179;DHT22;71287;48.414;11.478;2023-09-19T01:02:31;16.80;99.90
9179;DHT22;71287;48.414;11.478;2023-09-19T01:04:58;16.80;99.90
9179;DHT22;71287;48.414;11.478;2023-09-19T01:07:25;16.90;99.90
9179;DHT22;71287;48.414;11.478;2023-09-19T01:09:53;16.80;99.90
9179;DHT22;71287;48.414;11.478;2023-09-19T01:12:28;16.80;99.90
9179;DHT22;71287;48.414;11.478;2023-09-19T01:15:06;16.90;99.90
9179;DHT22;71287;48.414;11.478;2023-09-19T01:17:38;16.90;99.90
9179;DHT22;71287;48.414;11.478;2023-09-19T01:20:20;16.90;99.90
9179;DHT22;71287;48.414;11.478;2023-09-19T01:22:59;16.90;99.90
9179;DHT22;71287;48.414;11.478;2023-09-19T01:25:50;16.90;99.90
9179;DHT22;71287;48.414;11.478;2023-09-19T01:28:27;16.90;99.90
9179;DHT22;71287;48.414;11.478;2023-09-19T01:30:58;17.00;99.90
9179;DHT22;71287;48.414;11.478;2023-09-19T01:33:27;17.00;99.90
9179;DHT22;71287;48.414;11.478;2023-09-19T01:35:59;17.00;99.90
9179;DHT22;71287;48.414;11.478;2023-09-19T01:38:26;17.00;99.90
9179;DHT22;71287;48.414;11.478;2023-09-19T01:41:05;17.10;99.90
9179;DHT22;71287;48.414;11.478;2023-09-19T01:43:39;17.10;99.90
9179;DHT22;71287;48.414;11.478;2023-09-19T01:46:14;17.10;99.90
9179;DHT22;71287;48.414;11.478;2023-09-19T01:48:43;17.10;99.90
9179;DHT22;71287;48.414;11.478;2023-09-19T01:51:16;17.20;99.90
9179;DHT22;71287;48.414;11.478;2023-09-19T01:53:51;17.20;99.90
9179;DHT22;71287;48.414;11.478;2023-09-19T01:56:29;17.30;99.90
9179;DHT22;71287;48.414;11.478;2023-09-19T01:59:02;17.30;99.90
9179;DHT22;71287;48.414;11.478;2023-09-19T02:01:32;17.30;99.90
9179;DHT22;71287;48.414;11.478;2023-09-19T02:04:00;17.40;99.90
9179;DHT22;71287;48.414;11.478;2023-09-19T02:06:28;17.40;99.90
9179;DHT22;71287;48.414;11.478;2023-09-19T02:08:55;17.40;99.90
9179;DHT22;71287;48.414;11.478;2023-09-19T02:11:22;17.40;99.90
9179;DHT22;71287;48.414;11.478;2023-09-19T02:13:50;17.50;99.90
9179;DHT22;71287;48.414;11.478;2023-09-19T02:16:20;17.40;99.90
9179;DHT22;71287;48.414;11.478;2023-09-19T02:18:49;17.50;99.90
9179;DHT22;71287;48.414;11.478;2023-09-19T02:21:16;17.50;99.90
9179;DHT22;71287;48.414;11.478;2023-09-19T02:23:43;17.50;99.90
9179;DHT22;71287;48.414;11.478;2023-09-19T02:26:10;17.50;99.90
9179;DHT22;71287;48.414;11.478;2023-09-19T02:28:39;17.50;99.90
9179;DHT22;71287;48.414;11.478;2023-09-19T02:31:06;17.50;99.90
9179;DHT22;71287;48.414;11.478;2023-09-19T02:33:33;17.50;99.90
9179;DHT22;71287;48.414;11.478;2023-09-19T02:36:02;17.50;99.90
9179;DHT22;71287;48.414;11.478;2023-09-19T02:38:31;17.50;99.90
9179;DHT22;71287;48.414;11.478;2023-09-19T02:40:57;17.40;99.90
9179;DHT22;71287;48.414;11.478;2023-09-19T02:43:24;17.40;99.90
9179;DHT22;71287;48.414;11.478;2023-09-19T02:45:51;17.40;99.90
9179;DHT22;71287;48.414;11.478;2023-09-19T02:48:19;17.30;99.90
9179;DHT22;71287;48.414;11.478;2023-09-19T02:50:46;17.30;99.90
9179;DHT22;71287;48.414;11.478;2023-09-19T02:53:14;17.30;99.90
9179;DHT22;71287;48.414;11.478;2023-09-19T02:55:41;17.20;99.90
9179;DHT22;71287;48.414;11.478;2023-09-19T02:58:08;17.20;99.90
9179;DHT22;71287;48.414;11.478;2023-09-19T03:00:37;17.10;99.90
9179;DHT22;71287;48.414;11.478;2023-09-19T03:03:04;17.10;99.90
9179;DHT22;71287;48.414;11.478;2023-09-19T03:05:33;17.10;99.90
9179;DHT22;71287;48.414;11.478;2023-09-19T03:08:00;17.10;99.90
9179;DHT22;71287;48.414;11.478;2023-09-19T03:10:29;17.10;99.90
9179;DHT22;71287;48.414;11.478;2023-09-19T03:12:56;17.10;99.90
9179;DHT22;71287;48.414;11.478;2023-09-19T03:15:23;17.10;99.90
9179;DHT22;71287;48.414;11.478;2023-09-19T03:17:50;17.10;99.90
9179;DHT22;71287;48.414;11.478;2023-09-19T03:20:19;17.10;99.90
9179;DHT22;71287;48.414;11.478;2023-09-19T03:22:46;17.20;99.90
9179;DHT22;71287;48.414;11.478;2023-09-19T03:25:14;17.20;99.90
9179;DHT22;71287;48.414;11.478;2023-09-19T03:27:44;17.30;99.90
9179;DHT22;71287;48.414;11.478;2023-09-19T03:30:11;17.20;99.90
9179;DHT22;71287;48.414;11.478;2023-09-19T03:32:43;17.20;99.90
9179;DHT22;71287;48.414;11.478;2023-09-19T03:35:10;17.20;99.90
9179;DHT22;71287;48.414;11.478;2023-09-19T03:37:39;17.20;99.90
9179;DHT22;71287;48.414;11.478;2023-09-19T03:40:07;17.20;99.90
9179;DHT22;71287;48.414;11.478;2023-09-19T03:42:38;17.20;99.90
9179;DHT22;71287;48.414;11.478;2023-09-19T03:45:07;17.30;99.90
9179;DHT22;71287;48.414;11.478;2023-09-19T03:47:37;17.20;99.90
9179;DHT22;71287;48.414;11.478;2023-09-19T03:50:05;17.30;99.90
9179;DHT22;71287;48.414;11.478;2023-09-19T03:52:34;17.30;99.90
9179;DHT22;71287;48.414;11.478;2023-09-19T03:55:00;17.30;99.90
9179;DHT22;71287;48.414;11.478;2023-09-19T03:57:30;17.30;99.90
9179;DHT22;71287;48.414;11.478;2023-09-19T03:59:57;17.30;99.90
9179;DHT22;71287;48.414;11.478;2023-09-19T04:02:25;17.40;99.90
9179;DHT22;71287;48.414;11.478;2023-09-19T04:04:58;17.40;99.90
9179;DHT22;71287;48.414;11.478;2023-09-19T04:07:25;17.40;99.90
9179;DHT22;71287;48.414;11.478;2023-09-19T04:09:54;17.40;99.90
9179;DHT22;71287;48.414;11.478;2023-09-19T04:12:21;17.40;99.90
9179;DHT22;71287;48.414;11.478;2023-09-19T04:14:48;17.40;99.90
9179;DHT22;71287;48.414;11.478;2023-09-19T04:17:15;17.40;99.90
9179;DHT22;71287;48.414;11.478;2023-09-19T04:19:43;17.40;99.90
9179;DHT22;71287;48.414;11.478;2023-09-19T04:22:11;17.40;99.90
9179;DHT22;71287;48.414;11.478;2023-09-19T04:24:38;17.40;99.90
9179;DHT22;71287;48.414;11.478;2023-09-19T04:27:05;17.50;99.90
9179;DHT22;71287;48.414;11.478;2023-09-19T04:29:32;17.50;99.90
9179;DHT22;71287;48.414;11.478;2023-09-19T04:31:59;17.50;99.90
9179;DHT22;71287;48.414;11.478;2023-09-19T04:34:26;17.50;99.90
9179;DHT22;71287;48.414;11.478;2023-09-19T04:36:54;17.50;99.90
9179;DHT22;71287;48.414;11.478;2023-09-19T04:39:23;17.50;99.90
9179;DHT22;71287;48.414;11.478;2023-09-19T04:41:52;17.50;99.90
9179;DHT22;71287;48.414;11.478;2023-09-19T04:44:19;17.50;99.90
9179;DHT22;71287;48.414;11.478;2023-09-19T04:46:46;17.60;99.90
9179;DHT22;71287;48.414;11.478;2023-09-19T04:49:13;17.60;99.90
9179;DHT22;71287;48.414;11.478;2023-09-19T04:51:40;17.60;99.90
9179;DHT22;71287;48.414;11.478;2023-09-19T04:54:09;17.60;99.90
9179;DHT22;71287;48.414;11.478;2023-09-19T04:56:36;17.60;99.90
9179;DHT22;71287;48.414;11.478;2023-09-19T04:59:06;17.60;99.90
9179;DHT22;71287;48.414;11.478;2023-09-19T05:01:33;17.60;99.90
9179;DHT22;71287;48.414;11.478;2023-09-19T05:03:59;17.60;99.90
9179;DHT22;71287;48.414;11.478;2023-09-19T05:06:26;17.60;99.90
9179;DHT22;71287;48.414;11.478;2023-09-19T05:08:53;17.70;99.90
9179;DHT22;71287;48.414;11.478;2023-09-19T05:11:21;17.60;99.90
9179;DHT22;71287;48.414;11.478;2023-09-19T05:13:50;17.70;99.90
9179;DHT22;71287;48.414;11.478;2023-09-19T05:16:18;17.70;99.90
9179;DHT22;71287;48.414;11.478;2023-09-19T05:18:45;17.70;99.90
9179;DHT22;71287;48.414;11.478;2023-09-19T05:21:12;17.60;99.90
9179;DHT22;71287;48.414;11.478;2023-09-19T05:23:39;17.60;99.90
9179;DHT22;71287;48.414;11.478;2023-09-19T05:26:06;17.70;99.90
9179;DHT22;71287;48.414;11.478;2023-09-19T05:28:34;17.70;99.90
9179;DHT22;71287;48.414;11.478;2023-09-19T05:31:01;17.70;99.90
9179;DHT22;71287;48.414;11.478;2023-09-19T05:33:28;17.70;99.90
9179;DHT22;71287;48.414;11.478;2023-09-19T05:35:57;17.80;99.90
9179;DHT22;71287;48.414;11.478;2023-09-19T05:38:24;17.80;99.90
9179;DHT22;71287;48.414;11.478;2023-09-19T05:40:52;17.80;99.90
9179;DHT22;71287;48.414;11.478;2023-09-19T05:43:19;17.90;99.90
9179;DHT22;71287;48.414;11.478;2023-09-19T05:45:47;17.90;99.90
9179;DHT22;71287;48.414;11.478;2023-09-19T05:48:17;18.00;99.90
9179;DHT22;71287;48.414;11.478;2023-09-19T05:50:46;18.00;99.90
9179;DHT22;71287;48.414;11.478;2023-09-19T05:53:14;18.20;99.90
9179;DHT22;71287;48.414;11.478;2023-09-19T05:55:41;18.30;99.90
9179;DHT22;71287;48.414;11.478;2023-09-19T05:58:08;18.40;99.90
9179;DHT22;71287;48.414;11.478;2023-09-19T06:00:35;18.50;99.90
9179;DHT22;71287;48.414;11.478;2023-09-19T06:03:04;18.60;99.90
9179;DHT22;71287;48.414;11.478;2023-09-19T06:05:31;18.60;99.90
9179;DHT22;71287;48.414;11.478;2023-09-19T06:07:58;18.70;99.90
9179;DHT22;71287;48.414;11.478;2023-09-19T06:10:26;19.50;99.90
9179;DHT22;71287;48.414;11.478;2023-09-19T06:12:53;20.60;99.90
9179;DHT22;71287;48.414;11.478;2023-09-19T06:15:23;21.50;99.90
9179;DHT22;71287;48.414;11.478;2023-09-19T06:17:51;22.50;99.90
9179;DHT22;71287;48.414;11.478;2023-09-19T06:20:22;23.50;99.90
9179;DHT22;71287;48.414;11.478;2023-09-19T06:22:51;24.70;99.90
9179;DHT22;71287;48.414;11.478;2023-09-19T06:25:19;25.60;99.90
9179;DHT22;71287;48.414;11.478;2023-09-19T06:27:46;25.60;99.80
9179;DHT22;71287;48.414;11.478;2023-09-19T06:30:13;25.40;98.70
9179;DHT22;71287;48.414;11.478;2023-09-19T06:32:41;25.40;98.50
9179;DHT22;71287;48.414;11.478;2023-09-19T06:35:10;25.80;97.40
9179;DHT22;71287;48.414;11.478;2023-09-19T06:37:38;25.70;96.40
9179;DHT22;71287;48.414;11.478;2023-09-19T06:40:07;25.50;96.20
9179;DHT22;71287;48.414;11.478;2023-09-19T06:42:39;26.50;95.70
9179;DHT22;71287;48.414;11.478;2023-09-19T06:45:07;28.00;93.90
9179;DHT22;71287;48.414;11.478;2023-09-19T06:47:34;29.50;91.20
9179;DHT22;71287;48.414;11.478;2023-09-19T06:50:02;31.10;85.60
9179;DHT22;71287;48.414;11.478;2023-09-19T06:52:31;32.50;78.40
9179;DHT22;71287;48.414;11.478;2023-09-19T06:54:59;33.80;70.40
9179;DHT22;71287;48.414;11.478;2023-09-19T06:57:28;32.70;67.90
9179;DHT22;71287;48.414;11.478;2023-09-19T06:59:56;31.70;67.20
9179;DHT22;71287;48.414;11.478;2023-09-19T07:02:22;33.30;65.20
9179;DHT22;71287;48.414;11.478;2023-09-19T07:04:49;35.60;58.70
9179;DHT22;71287;48.414;11.478;2023-09-19T07:07:16;36.10;55.70
9179;DHT22;71287;48.414;11.478;2023-09-19T07:09:43;35.80;53.90
9179;DHT22;71287;48.414;11.478;2023-09-19T07:12:11;34.30;54.70
9179;DHT22;71287;48.414;11.478;2023-09-19T07:14:38;33.50;55.00
9179;DHT22;71287;48.414;11.478;2023-09-19T07:17:05;32.30;57.20
9179;DHT22;71287;48.414;11.478;2023-09-19T07:19:33;31.30;58.00
9179;DHT22;71287;48.414;11.478;2023-09-19T07:22:00;29.90;60.10
9179;DHT22;71287;48.414;11.478;2023-09-19T07:24:28;28.60;63.00
9179;DHT22;71287;48.414;11.478;2023-09-19T07:26:55;27.80;65.30
9179;DHT22;71287;48.414;11.478;2023-09-19T07:29:23;27.90;66.40
9179;DHT22;71287;48.414;11.478;2023-09-19T07:31:51;28.00;66.50
9179;DHT22;71287;48.414;11.478;2023-09-19T07:34:18;29.80;64.20
9179;DHT22;71287;48.414;11.478;2023-09-19T07:36:46;30.50;60.50
9179;DHT22;71287;48.414;11.478;2023-09-19T07:39:13;33.80;56.10
9179;DHT22;71287;48.414;11.478;2023-09-19T07:41:40;37.20;50.90
9179;DHT22;71287;48.414;11.478;2023-09-19T07:44:07;36.90;49.00
9179;DHT22;71287;48.414;11.478;2023-09-19T07:46:37;34.70;50.70
9179;DHT22;71287;48.414;11.478;2023-09-19T07:49:04;33.00;53.00
9179;DHT22;71287;48.414;11.478;2023-09-19T07:51:31;31.60;55.20
9179;DHT22;71287;48.414;11.478;2023-09-19T07:53:58;30.30;57.40
9179;DHT22;71287;48.414;11.478;2023-09-19T07:56:25;29.20;59.30
9179;DHT22;71287;48.414;11.478;2023-09-19T07:58:53;28.70;61.70
9179;DHT22;71287;48.414;11.478;2023-09-19T08:01:20;28.30;62.50
9179;DHT22;71287;48.414;11.478;2023-09-19T08:03:50;27.80;63.70
9179;DHT22;71287;48.414;11.478;2023-09-19T08:06:17;27.40;64.90
9179;DHT22;71287;48.414;11.478;2023-09-19T08:08:44;27.00;66.60
9179;DHT22;71287;48.414;11.478;2023-09-19T08:11:11;26.80;68.60
9179;DHT22;71287;48.414;11.478;2023-09-19T08:13:38;26.80;70.00
9179;DHT22;71287;48.414;11.478;2023-09-19T08:16:09;26.60;70.40
9179;DHT22;71287;48.414;11.478;2023-09-19T08:18:36;26.50;71.30
9179;DHT22;71287;48.414;11.478;2023-09-19T08:21:07;26.30;72.00
9179;DHT22;71287;48.414;11.478;2023-09-19T08:23:36;26.20;71.80
9179;DHT22;71287;48.414;11.478;2023-09-19T08:26:04;26.10;71.50
9179;DHT22;71287;48.414;11.478;2023-09-19T08:28:32;26.10;73.40
9179;DHT22;71287;48.414;11.478;2023-09-19T08:31:01;26.00;72.80
9179;DHT22;71287;48.414;11.478;2023-09-19T08:33:31;25.70;72.40
9179;DHT22;71287;48.414;11.478;2023-09-19T08:35:58;25.50;73.10
9179;DHT22;71287;48.414;11.478;2023-09-19T08:38:26;25.30;74.80
9179;DHT22;71287;48.414;11.478;2023-09-19T08:40:57;25.40;75.70
9179;DHT22;71287;48.414;11.478;2023-09-19T08:43:25;25.50;76.00
9179;DHT22;71287;48.414;11.478;2023-09-19T08:45:57;25.60;75.80
9179;DHT22;71287;48.414;11.478;2023-09-19T08:48:26;25.70;77.30
9179;DHT22;71287;48.414;11.478;2023-09-19T08:50:57;25.80;76.40
9179;DHT22;71287;48.414;11.478;2023-09-19T08:53:34;25.90;75.90
9179;DHT22;71287;48.414;11.478;2023-09-19T08:56:06;25.90;76.60
9179;DHT22;71287;48.414;11.478;2023-09-19T08:58:46;25.90;75.50
9179;DHT22;71287;48.414;11.478;2023-09-19T09:01:15;25.80;75.60
9179;DHT22;71287;48.414;11.478;2023-09-19T09:03:43;25.80;75.80
9179;DHT22;71287;48.414;11.478;2023-09-19T09:06:14;25.90;75.90
9179;DHT22;71287;48.414;11.478;2023-09-19T09:08:43;26.30;75.00
9179;DHT22;71287;48.414;11.478;2023-09-19T09:11:11;26.50;74.80
9179;DHT22;71287;48.414;11.478;2023-09-19T09:13:38;26.80;73.60
9179;DHT22;71287;48.414;11.478;2023-09-19T09:16:07;26.90;72.20
9179;DHT22;71287;48.414;11.478;2023-09-19T09:18:35;26.70;71.30
9179;DHT22;71287;48.414;11.478;2023-09-19T09:21:02;26.50;71.50
9179;DHT22;71287;48.414;11.478;2023-09-19T09:23:30;26.00;71.70
9179;DHT22;71287;48.414;11.478;2023-09-19T09:25:59;25.70;72.80
9179;DHT22;71287;48.414;11.478;2023-09-19T09:28:30;25.40;74.30
9179;DHT22;71287;48.414;11.478;2023-09-19T09:30:58;25.10;75.30
9179;DHT22;71287;48.414;11.478;2023-09-19T09:33:26;24.90;76.80
9179;DHT22;71287;48.414;11.478;2023-09-19T09:35:55;25.00;78.20
9179;DHT22;71287;48.414;11.478;2023-09-19T09:38:24;25.30;79.50
9179;DHT22;71287;48.414;11.478;2023-09-19T09:40:54;25.50;78.60
9179;DHT22;71287;48.414;11.478;2023-09-19T09:43:33;25.50;77.80
9179;DHT22;71287;48.414;11.478;2023-09-19T09:46:14;25.70;79.30
9179;DHT22;71287;48.414;11.478;2023-09-19T09:49:01;26.10;78.10
9179;DHT22;71287;48.414;11.478;2023-09-19T09:51:48;26.50;76.90
9179;DHT22;71287;48.414;11.478;2023-09-19T09:54:23;26.60;75.30
9179;DHT22;71287;48.414;11.478;2023-09-19T09:56:54;26.30;74.70
9179;DHT22;71287;48.414;11.478;2023-09-19T09:59:50;25.90;75.10
9179;DHT22;71287;48.414;11.478;2023-09-19T10:02:20;25.60;74.40
9179;DHT22;71287;48.414;11.478;2023-09-19T10:04:51;25.30;74.80
9179;DHT22;71287;48.414;11.478;2023-09-19T10:07:26;25.20;75.50
9179;DHT22;71287;48.414;11.478;2023-09-19T10:09:59;25.20;75.20
9179;DHT22;71287;48.414;11.478;2023-09-19T10:12:38;25.30;75.00
9179;DHT22;71287;48.414;11.478;2023-09-19T10:15:07;25.30;73.60
9179;DHT22;71287;48.414;11.478;2023-09-19T10:17:36;25.10;73.50
9179;DHT22;71287;48.414;11.478;2023-09-19T10:20:10;24.60;73.60
9179;DHT22;71287;48.414;11.478;2023-09-19T10:22:48;24.30;75.50
9179;DHT22;71287;48.414;11.478;2023-09-19T10:25:25;24.10;77.50
9179;DHT22;71287;48.414;11.478;2023-09-19T10:27:54;24.00;79.70
9179;DHT22;71287;48.414;11.478;2023-09-19T10:30:24;23.90;81.20
9179;DHT22;71287;48.414;11.478;2023-09-19T10:32:59;23.90;82.20
9179;DHT22;71287;48.414;11.478;2023-09-19T10:35:26;23.90;82.40
9179;DHT22;71287;48.414;11.478;2023-09-19T10:37:57;23.90;82.10
9179;DHT22;71287;48.414;11.478;2023-09-19T10:40:24;23.90;82.10
9179;DHT22;71287;48.414;11.478;2023-09-19T10:43:00;23.90;82.50
9179;DHT22;71287;48.414;11.478;2023-09-19T10:45:30;23.90;82.40
9179;DHT22;71287;48.414;11.478;2023-09-19T10:47:57;23.80;83.00
9179;DHT22;71287;48.414;11.478;2023-09-19T10:50:24;23.80;84.70
9179;DHT22;71287;48.414;11.478;2023-09-19T10:53:00;24.10;85.60
9179;DHT22;71287;48.414;11.478;2023-09-19T10:55:31;24.40;85.40
9179;DHT22;71287;48.414;11.478;2023-09-19T10:57:59;24.50;85.20
9179;DHT22;71287;48.414;11.478;2023-09-19T11:00:31;24.60;85.60
9179;DHT22;71287;48.414;11.478;2023-09-19T11:03:22;24.70;85.40
9179;DHT22;71287;48.414;11.478;2023-09-19T11:06:16;24.90;86.30
9179;DHT22;71287;48.414;11.478;2023-09-19T11:09:00;25.10;86.10
9179;DHT22;71287;48.414;11.478;2023-09-19T11:11:51;25.20;85.50
9179;DHT22;71287;48.414;11.478;2023-09-19T11:14:39;25.30;85.00
9179;DHT22;71287;48.414;11.478;2023-09-19T11:20:25;25.50;85.10
9179;DHT22;71287;48.414;11.478;2023-09-19T11:23:20;25.60;84.70
9179;DHT22;71287;48.414;11.478;2023-09-19T11:25:51;25.60;84.50
9179;DHT22;71287;48.414;11.478;2023-09-19T11:28:32;25.60;84.10
9179;DHT22;71287;48.414;11.478;2023-09-19T11:37:03;26.00;83.80
9179;DHT22;71287;48.414;11.478;2023-09-19T11:40:05;26.20;82.70
9179;DHT22;71287;48.414;11.478;2023-09-19T11:42:42;26.10;82.20
9179;DHT22;71287;48.414;11.478;2023-09-19T11:48:23;25.70;82.50
9179;DHT22;71287;48.414;11.478;2023-09-19T11:50:51;25.50;82.60
9179;DHT22;71287;48.414;11.478;2023-09-19T11:53:21;25.30;82.70
9179;DHT22;71287;48.414;11.478;2023-09-19T11:55:50;25.10;83.10
9179;DHT22;71287;48.414;11.478;2023-09-19T11:58:18;25.00;82.80
9179;DHT22;71287;48.414;11.478;2023-09-19T12:00:45;24.80;83.30
9179;DHT22;71287;48.414;11.478;2023-09-19T12:03:21;24.50;84.00
9179;DHT22;71287;48.414;11.478;2023-09-19T12:05:49;24.20;84.90
9179;DHT22;71287;48.414;11.478;2023-09-19T12:08:19;24.00;85.70
9179;DHT22;71287;48.414;11.478;2023-09-19T12:10:48;23.90;86.20
9179;DHT22;71287;48.414;11.478;2023-09-19T12:13:18;23.60;86.30
9179;DHT22;71287;48.414;11.478;2023-09-19T12:15:46;23.40;87.40
9179;DHT22;71287;48.414;11.478;2023-09-19T12:18:27;23.30;87.80
9179;DHT22;71287;48.414;11.478;2023-09-19T12:20:55;23.40;88.20
9179;DHT22;71287;48.414;11.478;2023-09-19T12:23:25;23.40;87.90
9179;DHT22;71287;48.414;11.478;2023-09-19T12:25:52;23.40;87.60
9179;DHT22;71287;48.414;11.478;2023-09-19T12:28:24;23.40;87.70
9179;DHT22;71287;48.414;11.478;2023-09-19T12:30:52;23.30;87.70
9179;DHT22;71287;48.414;11.478;2023-09-19T12:33:21;23.20;88.20
9179;DHT22;71287;48.414;11.478;2023-09-19T12:35:51;23.10;88.70
9179;DHT22;71287;48.414;11.478;2023-09-19T12:38:25;22.90;89.30
9179;DHT22;71287;48.414;11.478;2023-09-19T12:40:54;22.90;90.10
9179;DHT22;71287;48.414;11.478;2023-09-19T12:43:21;22.90;90.30
9179;DHT22;71287;48.414;11.478;2023-09-19T12:45:49;22.80;90.20
9179;DHT22;71287;48.414;11.478;2023-09-19T12:48:20;22.90;90.20
9179;DHT22;71287;48.414;11.478;2023-09-19T12:51:04;23.00;89.60
9179;DHT22;71287;48.414;11.478;2023-09-19T12:53:35;23.20;89.90
9179;DHT22;71287;48.414;11.478;2023-09-19T12:56:06;23.50;89.50
9179;DHT22;71287;48.414;11.478;2023-09-19T12:58:47;23.70;88.80
9179;DHT22;71287;48.414;11.478;2023-09-19T13:01:14;23.90;88.70
9179;DHT22;71287;48.414;11.478;2023-09-19T13:03:41;23.80;87.60
9179;DHT22;71287;48.414;11.478;2023-09-19T13:06:08;23.80;87.50
9179;DHT22;71287;48.414;11.478;2023-09-19T13:08:38;23.80;87.50
9179;DHT22;71287;48.414;11.478;2023-09-19T13:11:10;23.90;88.90
9179;DHT22;71287;48.414;11.478;2023-09-19T13:13:37;23.90;87.20
9179;DHT22;71287;48.414;11.478;2023-09-19T13:16:04;23.90;86.30
9179;DHT22;71287;48.414;11.478;2023-09-19T13:18:42;23.90;85.30
9179;DHT22;71287;48.414;11.478;2023-09-19T13:21:11;24.00;84.60
9179;DHT22;71287;48.414;11.478;2023-09-19T13:23:42;24.10;84.70
9179;DHT22;71287;48.414;11.478;2023-09-19T13:26:10;24.10;83.50
9179;DHT22;71287;48.414;11.478;2023-09-19T13:28:38;24.20;83.20
9179;DHT22;71287;48.414;11.478;2023-09-19T13:31:05;24.20;83.40
9179;DHT22;71287;48.414;11.478;2023-09-19T13:33:33;24.10;82.60
9179;DHT22;71287;48.414;11.478;2023-09-19T13:36:01;24.00;82.30
9179;DHT22;71287;48.414;11.478;2023-09-19T13:38:28;24.00;81.40
9179;DHT22;71287;48.414;11.478;2023-09-19T13:40:56;24.00;81.40
9179;DHT22;71287;48.414;11.478;2023-09-19T13:43:23;24.00;81.50
9179;DHT22;71287;48.414;11.478;2023-09-19T13:45:50;24.00;80.90
9179;DHT22;71287;48.414;11.478;2023-09-19T13:48:17;24.00;81.00
9179;DHT22;71287;48.414;11.478;2023-09-19T13:50:48;24.00;81.80
9179;DHT22;71287;48.414;11.478;2023-09-19T13:53:15;24.00;82.40
9179;DHT22;71287;48.414;11.478;2023-09-19T13:55:43;24.00;80.90
9179;DHT22;71287;48.414;11.478;2023-09-19T13:58:11;24.00;80.10
9179;DHT22;71287;48.414;11.478;2023-09-19T14:00:38;24.10;81.10
9179;DHT22;71287;48.414;11.478;2023-09-19T14:03:05;24.10;81.60
9179;DHT22;71287;48.414;11.478;2023-09-19T14:05:32;24.10;81.60
9179;DHT22;71287;48.414;11.478;2023-09-19T14:07:59;24.00;82.00
9179;DHT22;71287;48.414;11.478;2023-09-19T14:10:26;23.90;81.70
9179;DHT22;71287;48.414;11.478;2023-09-19T14:12:55;23.90;82.30
9179;DHT22;71287;48.414;11.478;2023-09-19T14:15:24;23.90;83.20
9179;DHT22;71287;48.414;11.478;2023-09-19T14:17:55;23.90;83.90
9179;DHT22;71287;48.414;11.478;2023-09-19T14:20:22;23.80;82.70
9179;DHT22;71287;48.414;11.478;2023-09-19T14:22:49;23.80;83.40
9179;DHT22;71287;48.414;11.478;2023-09-19T14:25:16;23.90;83.70
9179;DHT22;71287;48.414;11.478;2023-09-19T14:27:43;23.90;83.20
9179;DHT22;71287;48.414;11.478;2023-09-19T14:30:11;23.70;82.80
9179;DHT22;71287;48.414;11.478;2023-09-19T14:32:39;23.70;82.70
9179;DHT22;71287;48.414;11.478;2023-09-19T14:35:07;23.70;82.80
9179;DHT22;71287;48.414;11.478;2023-09-19T14:37:35;23.50;82.50
9179;DHT22;71287;48.414;11.478;2023-09-19T14:40:04;23.50;82.70
9179;DHT22;71287;48.414;11.478;2023-09-19T14:42:34;23.50;82.70
9179;DHT22;71287;48.414;11.478;2023-09-19T14:45:04;23.50;81.90
9179;DHT22;71287;48.414;11.478;2023-09-19T14:47:31;23.40;81.60
9179;DHT22;71287;48.414;11.478;2023-09-19T14:50:01;23.40;82.00
9179;DHT22;71287;48.414;11.478;2023-09-19T14:52:27;23.30;82.00
9179;DHT22;71287;48.414;11.478;2023-09-19T14:54:54;23.20;82.20
9179;DHT22;71287;48.414;11.478;2023-09-19T14:57:21;23.10;82.80
9179;DHT22;71287;48.414;11.478;2023-09-19T14:59:50;23.20;82.90
9179;DHT22;71287;48.414;11.478;2023-09-19T15:02:17;23.20;83.80
9179;DHT22;71287;48.414;11.478;2023-09-19T15:04:44;23.10;83.20
9179;DHT22;71287;48.414;11.478;2023-09-19T15:07:13;23.10;83.30
9179;DHT22;71287;48.414;11.478;2023-09-19T15:09:41;23.00;83.80
9179;DHT22;71287;48.414;11.478;2023-09-19T15:12:09;22.90;83.50
9179;DHT22;71287;48.414;11.478;2023-09-19T15:14:39;22.90;83.80
9179;DHT22;71287;48.414;11.478;2023-09-19T15:17:06;22.80;83.60
9179;DHT22;71287;48.414;11.478;2023-09-19T15:19:33;22.90;84.70
9179;DHT22;71287;48.414;11.478;2023-09-19T15:22:00;22.90;84.30
9179;DHT22;71287;48.414;11.478;2023-09-19T15:24:28;22.90;84.30
9179;DHT22;71287;48.414;11.478;2023-09-19T15:26:55;22.90;83.70
9179;DHT22;71287;48.414;11.478;2023-09-19T15:29:22;22.90;83.70
9179;DHT22;71287;48.414;11.478;2023-09-19T15:31:49;22.80;83.50
9179;DHT22;71287;48.414;11.478;2023-09-19T15:34:15;22.70;83.50
9179;DHT22;71287;48.414;11.478;2023-09-19T15:36:42;22.70;84.50
9179;DHT22;71287;48.414;11.478;2023-09-19T15:39:10;22.60;85.10
9179;DHT22;71287;48.414;11.478;2023-09-19T15:41:39;22.60;85.00
9179;DHT22;71287;48.414;11.478;2023-09-19T15:44:12;22.50;85.70
9179;DHT22;71287;48.414;11.478;2023-09-19T15:46:39;22.40;84.70
9179;DHT22;71287;48.414;11.478;2023-09-19T15:49:06;22.40;84.80
9179;DHT22;71287;48.414;11.478;2023-09-19T15:51:34;22.40;85.00
9179;DHT22;71287;48.414;11.478;2023-09-19T15:54:07;22.40;85.70
9179;DHT22;71287;48.414;11.478;2023-09-19T15:56:34;22.50;86.00